Time;durP1;ratioP1;P1;durP2;ratioP2;P2;SDS_P1;SDS_P2;PMS_P1;PMS_P2;Temp;Humidity;BMP_temperature;BMP_pressure;BME280_temperature;BME280_humidity;BME280_pressure;Samples;Min_cycle;Max_cycle;Signal;HPM_P1;HPM_P2
2021/08/30 00:01:59;;;;;;;13.35;10.65;;;16.10;99.90;;;;;;5016760;28;20285;-82
2021/08/30 00:04:26;;;;;;;15.35;11.18;;;16.10;99.90;;;;;;5018972;28;20659;-83
2021/08/30 00:06:54;;;;;;;14.18;10.88;;;16.10;99.90;;;;;;5020951;28;20208;-82
2021/08/30 00:09:22;;;;;;;14.00;10.45;;;16.10;99.90;;;;;;5024720;28;20906;-82
2021/08/30 00:11:48;;;;;;;17.25;11.32;;;16.10;99.90;;;;;;5022412;28;20711;-76
2021/08/30 00:14:16;;;;;;;18.67;11.15;;;16.10;99.90;;;;;;5011160;28;20541;-76
2021/08/30 00:16:42;;;;;;;12.55;10.25;;;16.10;99.90;;;;;;5025045;28;20193;-75
2021/08/30 00:19:09;;;;;;;16.23;11.70;;;16.10;99.90;;;;;;5028291;28;20276;-81
2021/08/30 00:21:36;;;;;;;14.43;11.50;;;16.00;99.90;;;;;;5022394;28;20208;-83
2021/08/30 00:24:05;;;;;;;14.38;10.90;;;16.10;99.90;;;;;;5019652;28;20190;-81
2021/08/30 00:26:32;;;;;;;17.73;12.07;;;16.00;99.90;;;;;;5023684;28;20190;-82
2021/08/30 00:28:59;;;;;;;16.10;12.00;;;16.00;99.90;;;;;;5028291;28;20674;-81
2021/08/30 00:31:26;;;;;;;16.75;12.02;;;16.00;99.90;;;;;;5013572;28;20283;-81
2021/08/30 00:40:38;;;;;;;13.90;11.85;;;16.00;99.90;;;;;;5019139;28;20181;-82
2021/08/30 00:43:05;;;;;;;16.27;11.50;;;15.90;99.90;;;;;;5012755;28;20201;-81
2021/08/30 00:45:32;;;;;;;16.20;11.73;;;15.90;99.90;;;;;;5010663;28;20210;-81
2021/08/30 00:48:01;;;;;;;18.73;12.43;;;15.90;99.90;;;;;;5016275;28;20217;-82
2021/08/30 00:50:28;;;;;;;17.50;12.15;;;15.80;99.90;;;;;;5026876;28;20236;-82
2021/08/30 00:52:56;;;;;;;16.17;12.23;;;15.80;99.90;;;;;;5016041;28;20226;-82
2021/08/30 00:55:23;;;;;;;15.68;13.05;;;15.80;99.90;;;;;;5022002;28;20198;-81
2021/08/30 00:57:51;;;;;;;15.53;12.50;;;15.80;99.90;;;;;;5023246;28;20224;-81
2021/08/30 01:00:18;;;;;;;19.27;12.10;;;15.90;99.90;;;;;;5025596;28;20292;-82
2021/08/30 01:02:46;;;;;;;18.02;12.70;;;15.80;99.90;;;;;;5019005;28;20191;-81
2021/08/30 01:05:15;;;;;;;18.83;13.18;;;15.90;99.90;;;;;;5014517;28;20190;-82
2021/08/30 01:07:53;;;;;;;21.58;13.50;;;15.80;99.90;;;;;;5014936;28;20202;-81
2021/08/30 01:10:27;;;;;;;18.87;13.03;;;15.90;99.90;;;;;;5025578;28;20333;-83
2021/08/30 01:13:00;;;;;;;17.38;13.20;;;15.80;99.90;;;;;;5032663;28;20289;-83
2021/08/30 01:15:32;;;;;;;15.27;12.82;;;15.90;99.90;;;;;;5015404;28;20198;-83
2021/08/30 01:18:00;;;;;;;16.23;12.02;;;15.90;99.90;;;;;;5022564;28;20744;-81
2021/08/30 01:20:36;;;;;;;19.60;14.47;;;15.90;99.90;;;;;;5018969;28;20281;-83
2021/08/30 01:23:05;;;;;;;19.63;13.05;;;15.90;99.90;;;;;;5014124;28;20276;-83
2021/08/30 01:25:34;;;;;;;17.13;12.52;;;15.90;99.90;;;;;;5026055;28;20292;-82
2021/08/30 01:28:03;;;;;;;16.83;12.73;;;15.90;99.90;;;;;;5025157;28;20193;-82
2021/08/30 01:30:36;;;;;;;17.38;12.60;;;15.90;99.90;;;;;;5019006;28;20229;-83
2021/08/30 01:33:05;;;;;;;18.02;12.73;;;15.90;99.90;;;;;;5020562;28;20240;-82
2021/08/30 01:35:34;;;;;;;17.77;13.30;;;15.90;99.90;;;;;;5017818;28;20195;-81
2021/08/30 01:38:06;;;;;;;15.10;12.35;;;15.90;99.90;;;;;;5026213;28;20196;-80
2021/08/30 01:40:33;;;;;;;18.23;13.07;;;15.90;99.90;;;;;;5021801;28;20198;-82
2021/08/30 01:43:02;;;;;;;18.90;12.90;;;15.90;99.90;;;;;;5024894;28;20280;-80
2021/08/30 01:45:31;;;;;;;15.95;12.50;;;15.90;99.90;;;;;;5017986;28;20194;-81
2021/08/30 01:48:01;;;;;;;18.10;13.02;;;15.90;99.90;;;;;;5016373;28;20634;-81
2021/08/30 01:50:30;;;;;;;17.05;13.77;;;15.90;99.90;;;;;;5023788;28;20215;-81
2021/08/30 01:52:59;;;;;;;18.63;12.48;;;15.90;99.90;;;;;;5023828;28;20198;-80
2021/08/30 01:55:36;;;;;;;21.27;13.90;;;15.90;99.90;;;;;;5014108;28;20221;-82
2021/08/30 02:00:51;;;;;;;21.40;13.57;;;16.00;99.90;;;;;;5016132;28;20204;-84
2021/08/30 02:03:19;;;;;;;17.17;12.32;;;16.00;99.90;;;;;;5023392;28;20202;-84
2021/08/30 02:05:50;;;;;;;17.50;12.73;;;16.00;99.90;;;;;;5028139;28;20292;-84
2021/08/30 02:08:18;;;;;;;17.88;12.55;;;16.00;99.90;;;;;;5019901;28;20297;-83
2021/08/30 02:10:47;;;;;;;17.77;11.52;;;16.00;99.90;;;;;;5022007;28;20698;-83
2021/08/30 02:13:15;;;;;;;16.10;11.67;;;16.00;99.90;;;;;;5025529;28;20716;-83
2021/08/30 02:15:43;;;;;;;16.13;12.00;;;16.00;99.90;;;;;;5026034;28;20198;-82
2021/08/30 02:18:28;;;;;;;20.55;12.80;;;16.00;99.90;;;;;;5018992;28;20285;-81
2021/08/30 02:21:03;;;;;;;17.27;12.23;;;16.00;99.90;;;;;;5025444;28;20204;-82
2021/08/30 02:23:35;;;;;;;16.45;12.05;;;16.00;99.90;;;;;;5020027;28;20200;-81
2021/08/30 02:26:09;;;;;;;17.70;12.32;;;15.90;99.90;;;;;;5030102;28;20297;-81
2021/08/30 02:28:37;;;;;;;18.20;13.40;;;15.90;99.90;;;;;;5020099;28;20200;-81
2021/08/30 02:31:04;;;;;;;16.77;12.63;;;16.00;99.90;;;;;;5015639;28;20228;-81
2021/08/30 02:33:32;;;;;;;19.65;12.00;;;16.00;99.90;;;;;;5024689;28;20297;-81
2021/08/30 02:36:03;;;;;;;19.33;12.25;;;16.00;99.90;;;;;;5018595;28;20684;-82
2021/08/30 02:38:32;;;;;;;15.02;11.45;;;16.00;99.90;;;;;;5018494;28;20200;-82
2021/08/30 02:41:02;;;;;;;18.30;11.48;;;16.00;99.90;;;;;;5029011;28;20198;-83
2021/08/30 02:43:30;;;;;;;19.10;11.55;;;16.00;99.90;;;;;;5017395;28;20260;-81
2021/08/30 02:45:57;;;;;;;14.80;11.32;;;16.00;99.90;;;;;;5013826;28;20224;-81
2021/08/30 02:48:25;;;;;;;18.20;11.93;;;16.00;99.90;;;;;;5014178;28;20194;-79
2021/08/30 02:50:53;;;;;;;15.43;11.27;;;16.00;99.90;;;;;;5016018;28;20221;-81
2021/08/30 02:53:24;;;;;;;15.05;11.23;;;16.00;99.90;;;;;;5025509;28;20198;-81
2021/08/30 02:55:52;;;;;;;17.88;11.05;;;16.00;99.90;;;;;;5017613;28;20542;-81
2021/08/30 02:58:19;;;;;;;14.35;10.38;;;15.90;99.90;;;;;;5013347;28;20776;-82
2021/08/30 03:00:47;;;;;;;15.27;11.23;;;15.90;99.90;;;;;;5022117;28;20194;-80
2021/08/30 03:03:14;;;;;;;16.73;12.07;;;15.90;99.90;;;;;;5019741;28;20268;-80
2021/08/30 03:05:44;;;;;;;15.38;10.75;;;15.90;99.90;;;;;;5015038;28;20191;-80
2021/08/30 03:08:11;;;;;;;14.37;11.47;;;15.90;99.90;;;;;;5024361;28;20304;-80
2021/08/30 03:10:40;;;;;;;13.50;10.53;;;15.90;99.90;;;;;;5018510;28;20213;-80
2021/08/30 03:13:07;;;;;;;15.20;10.70;;;15.90;99.90;;;;;;5026747;28;20251;-81
2021/08/30 03:15:35;;;;;;;15.00;10.40;;;15.90;99.90;;;;;;5024780;28;20225;-81
2021/08/30 03:18:06;;;;;;;16.50;10.73;;;15.90;99.90;;;;;;5025113;28;20189;-82
2021/08/30 03:20:34;;;;;;;15.47;10.77;;;15.90;99.90;;;;;;5014628;28;20206;-81
2021/08/30 03:23:02;;;;;;;15.68;10.45;;;15.90;99.90;;;;;;5011025;28;20877;-81
2021/08/30 03:25:33;;;;;;;16.45;10.48;;;15.90;99.90;;;;;;5017594;28;20225;-81
2021/08/30 03:28:04;;;;;;;14.18;11.00;;;15.90;99.90;;;;;;5021483;28;20208;-81
2021/08/30 03:30:32;;;;;;;17.20;10.98;;;15.90;99.90;;;;;;5019695;28;20207;-81
2021/08/30 03:33:00;;;;;;;14.70;10.20;;;15.90;99.90;;;;;;5015959;28;20469;-81
2021/08/30 03:35:29;;;;;;;17.17;9.52;;;15.90;99.90;;;;;;5026902;28;20301;-81
2021/08/30 03:37:57;;;;;;;15.77;10.73;;;15.90;99.90;;;;;;5023479;28;20684;-81
2021/08/30 03:40:25;;;;;;;13.73;10.07;;;15.90;99.90;;;;;;5016237;28;20198;-81
2021/08/30 03:42:53;;;;;;;12.80;9.07;;;15.90;99.90;;;;;;5017905;28;20298;-81
2021/08/30 03:45:21;;;;;;;15.90;10.07;;;15.90;99.90;;;;;;5012751;28;20284;-81
2021/08/30 03:47:48;;;;;;;16.77;9.50;;;15.90;99.90;;;;;;5019036;28;20583;-82
2021/08/30 03:50:16;;;;;;;16.00;10.50;;;15.90;99.90;;;;;;5018726;28;20201;-83
2021/08/30 03:52:43;;;;;;;13.10;9.95;;;15.90;99.90;;;;;;5024477;28;20221;-82
2021/08/30 03:55:11;;;;;;;15.18;9.98;;;15.90;99.90;;;;;;5019085;28;20285;-81
2021/08/30 03:57:38;;;;;;;16.48;10.77;;;15.90;99.90;;;;;;5012913;28;20376;-81
2021/08/30 04:00:08;;;;;;;13.10;10.57;;;15.90;99.90;;;;;;5020881;28;20233;-80
2021/08/30 04:02:40;;;;;;;13.45;9.27;;;15.90;99.90;;;;;;5015737;28;20202;-81
2021/08/30 04:05:08;;;;;;;15.80;10.98;;;15.90;99.90;;;;;;5011340;28;20240;-82
2021/08/30 04:07:37;;;;;;;15.80;11.43;;;15.90;99.90;;;;;;5010622;28;20240;-81
2021/08/30 04:10:06;;;;;;;14.23;10.65;;;15.90;99.90;;;;;;5018132;28;20208;-81
2021/08/30 04:12:33;;;;;;;15.23;10.83;;;15.90;99.90;;;;;;5026274;28;20233;-81
2021/08/30 04:15:00;;;;;;;12.95;10.20;;;15.90;99.90;;;;;;5016383;28;20285;-82
2021/08/30 04:17:27;;;;;;;12.63;10.43;;;15.90;99.90;;;;;;5010985;28;20573;-81
2021/08/30 04:19:55;;;;;;;13.37;10.33;;;15.90;99.90;;;;;;5016618;28;20273;-81
2021/08/30 04:22:22;;;;;;;16.83;10.43;;;16.00;99.90;;;;;;5016938;28;20284;-81
2021/08/30 04:24:49;;;;;;;14.18;10.57;;;16.00;99.90;;;;;;5022166;28;20221;-81
2021/08/30 04:27:16;;;;;;;17.05;10.00;;;15.90;99.90;;;;;;5023356;28;20277;-81
2021/08/30 04:29:43;;;;;;;14.43;10.65;;;16.00;99.90;;;;;;5020242;28;20221;-80
2021/08/30 04:32:10;;;;;;;14.38;10.38;;;15.90;99.90;;;;;;5022755;28;20229;-81
2021/08/30 04:34:38;;;;;;;15.75;10.55;;;15.90;99.90;;;;;;5015086;28;20198;-81
2021/08/30 04:37:06;;;;;;;14.07;10.25;;;15.90;99.90;;;;;;5024696;28;20251;-81
2021/08/30 04:39:33;;;;;;;15.13;9.90;;;15.90;99.90;;;;;;5017963;28;20301;-80
2021/08/30 04:42:02;;;;;;;16.42;10.93;;;16.00;99.90;;;;;;5018190;28;20277;-79
2021/08/30 04:44:29;;;;;;;14.77;10.18;;;15.90;99.90;;;;;;5018781;28;20240;-79
2021/08/30 04:46:56;;;;;;;14.77;10.82;;;15.90;99.90;;;;;;5014959;28;20206;-80
2021/08/30 04:49:23;;;;;;;14.02;10.48;;;15.90;99.90;;;;;;5017553;28;20567;-82
2021/08/30 04:51:50;;;;;;;15.07;10.43;;;15.90;99.90;;;;;;5020996;28;20722;-81
2021/08/30 04:54:20;;;;;;;15.85;10.98;;;15.90;99.90;;;;;;5012650;28;20696;-82
2021/08/30 04:56:47;;;;;;;14.67;10.57;;;15.90;99.90;;;;;;5019815;28;20202;-82
2021/08/30 04:59:14;;;;;;;13.02;10.07;;;15.90;99.90;;;;;;5022587;28;20194;-82
2021/08/30 05:01:40;;;;;;;12.15;9.98;;;15.90;99.90;;;;;;5016907;28;20289;-81
2021/08/30 05:04:07;;;;;;;13.85;10.18;;;15.90;99.90;;;;;;5014834;28;20723;-79
2021/08/30 05:06:34;;;;;;;14.85;10.45;;;15.90;99.90;;;;;;5024848;28;20213;-80
2021/08/30 05:09:01;;;;;;;16.33;10.40;;;15.90;99.90;;;;;;5012999;28;20197;-79
2021/08/30 05:11:30;;;;;;;19.00;10.77;;;15.90;99.90;;;;;;5024273;28;20226;-78
2021/08/30 05:13:58;;;;;;;14.70;10.23;;;16.00;99.90;;;;;;5013926;28;20240;-79
2021/08/30 05:16:26;;;;;;;15.75;10.55;;;16.00;99.90;;;;;;5023666;28;20237;-80
2021/08/30 05:18:53;;;;;;;15.27;11.07;;;16.00;99.90;;;;;;5023780;28;20193;-80
2021/08/30 05:21:20;;;;;;;15.57;10.35;;;16.00;99.90;;;;;;5024751;28;20213;-82
2021/08/30 05:23:47;;;;;;;15.77;10.75;;;16.10;99.90;;;;;;5023428;28;20198;-81
2021/08/30 05:26:14;;;;;;;15.38;11.23;;;16.10;99.90;;;;;;5019949;28;20284;-81
2021/08/30 05:28:42;;;;;;;16.05;10.60;;;16.10;99.90;;;;;;5019289;28;20290;-83
2021/08/30 05:31:09;;;;;;;18.05;11.93;;;16.10;99.90;;;;;;5015816;28;20249;-81
2021/08/30 05:33:37;;;;;;;14.93;10.93;;;16.10;99.90;;;;;;5010957;28;20217;-82
2021/08/30 05:36:04;;;;;;;16.83;11.57;;;16.10;99.90;;;;;;5017571;28;20232;-82
2021/08/30 05:38:31;;;;;;;19.83;13.53;;;16.10;99.90;;;;;;5021474;28;20198;-81
2021/08/30 05:40:58;;;;;;;18.63;12.40;;;16.00;99.90;;;;;;5022990;28;20728;-79
2021/08/30 05:43:25;;;;;;;20.73;14.30;;;16.00;99.90;;;;;;5023184;28;20237;-79
2021/08/30 05:45:54;;;;;;;17.02;12.43;;;16.00;99.90;;;;;;5016228;28;20281;-78
2021/08/30 05:48:26;;;;;;;17.00;13.03;;;15.90;99.90;;;;;;5015707;28;20201;-80
2021/08/30 05:50:53;;;;;;;19.20;13.07;;;15.90;99.90;;;;;;5016828;28;20570;-79
2021/08/30 05:53:20;;;;;;;22.95;13.80;;;16.00;99.90;;;;;;5012814;28;20696;-78
2021/08/30 05:55:47;;;;;;;19.83;12.80;;;16.00;99.90;;;;;;5019397;28;20190;-79
2021/08/30 05:58:14;;;;;;;19.17;13.20;;;16.00;99.90;;;;;;5016237;28;20198;-79
2021/08/30 06:00:41;;;;;;;18.10;13.68;;;16.00;99.90;;;;;;5017229;28;20341;-79
2021/08/30 06:03:09;;;;;;;17.57;13.13;;;16.00;99.90;;;;;;5013442;28;20202;-78
2021/08/30 06:05:36;;;;;;;18.70;13.27;;;16.00;99.90;;;;;;5015730;28;20200;-80
2021/08/30 06:08:03;;;;;;;19.80;13.40;;;16.10;99.90;;;;;;5013899;28;20206;-80
2021/08/30 06:10:30;;;;;;;25.00;17.48;;;16.10;99.90;;;;;;5019991;28;20194;-80
2021/08/30 06:12:57;;;;;;;15.47;12.30;;;16.10;99.90;;;;;;5015676;28;20316;-81
2021/08/30 06:15:24;;;;;;;18.98;11.65;;;16.20;99.90;;;;;;5017531;28;20289;-80
2021/08/30 06:17:51;;;;;;;15.65;12.55;;;16.20;99.90;;;;;;5015601;28;20252;-81
2021/08/30 06:20:19;;;;;;;17.05;12.30;;;16.20;99.90;;;;;;5014871;28;20206;-81
2021/08/30 06:22:46;;;;;;;17.60;12.77;;;16.20;99.90;;;;;;5017517;28;20300;-81
2021/08/30 06:25:13;;;;;;;17.25;11.52;;;16.20;99.90;;;;;;5016032;28;20197;-80
2021/08/30 06:27:40;;;;;;;14.18;10.82;;;16.20;99.90;;;;;;5013619;28;20637;-81
2021/08/30 06:30:08;;;;;;;14.10;11.43;;;16.30;99.90;;;;;;5013323;28;20635;-81
2021/08/30 06:32:35;;;;;;;14.93;11.23;;;16.30;99.90;;;;;;5016480;28;20221;-79
2021/08/30 06:35:02;;;;;;;16.33;11.13;;;16.30;99.90;;;;;;5014735;28;20232;-81
2021/08/30 06:37:30;;;;;;;16.13;12.23;;;16.40;99.90;;;;;;5011619;28;20214;-80
2021/08/30 06:39:57;;;;;;;17.70;11.77;;;16.50;99.90;;;;;;5016860;28;20252;-77
2021/08/30 06:42:24;;;;;;;17.25;12.32;;;16.50;99.90;;;;;;5012233;28;20304;-77
2021/08/30 06:44:51;;;;;;;15.63;12.35;;;16.50;99.90;;;;;;5010884;28;20198;-76
2021/08/30 06:47:18;;;;;;;15.18;11.93;;;16.60;99.90;;;;;;5009272;28;20669;-80
2021/08/30 06:49:44;;;;;;;16.70;11.90;;;16.70;99.90;;;;;;5013178;28;20204;-79
2021/08/30 06:52:11;;;;;;;14.10;11.27;;;16.90;99.90;;;;;;5011290;28;20225;-78
2021/08/30 06:54:44;;;;;;;13.95;10.90;;;16.90;99.90;;;;;;5013369;28;20555;-79
2021/08/30 06:57:11;;;;;;;15.27;11.13;;;17.20;99.90;;;;;;5013382;28;20224;-79
2021/08/30 06:59:38;;;;;;;19.23;11.90;;;17.40;99.90;;;;;;5012585;28;20490;-79
2021/08/30 07:02:04;;;;;;;16.25;11.05;;;17.50;99.90;;;;;;5017914;28;20293;-79
2021/08/30 07:04:31;;;;;;;13.90;10.98;;;17.80;99.90;;;;;;5012905;28;20206;-79
2021/08/30 07:06:58;;;;;;;14.73;11.18;;;17.90;99.90;;;;;;5023135;28;20219;-80
2021/08/30 07:09:25;;;;;;;14.90;10.80;;;17.40;99.90;;;;;;5011469;28;20227;-79
2021/08/30 07:11:55;;;;;;;13.95;10.07;;;17.50;99.90;;;;;;5010115;28;20244;-78
2021/08/30 07:14:22;;;;;;;15.93;9.35;;;17.70;99.90;;;;;;5010303;28;20785;-78
2021/08/30 07:16:50;;;;;;;18.38;10.40;;;17.60;99.90;;;;;;5017361;28;20201;-80
2021/08/30 07:19:17;;;;;;;13.10;10.20;;;17.70;99.90;;;;;;5011399;28;20205;-79
2021/08/30 07:21:44;;;;;;;14.57;10.50;;;17.90;99.90;;;;;;5010465;28;20307;-78
2021/08/30 07:24:11;;;;;;;14.30;9.70;;;18.00;99.90;;;;;;5011344;28;20264;-78
2021/08/30 07:26:38;;;;;;;14.98;10.35;;;18.30;99.90;;;;;;5011177;28;20193;-78
2021/08/30 07:29:06;;;;;;;16.88;10.93;;;18.30;99.90;;;;;;5018041;28;20222;-79
2021/08/30 07:31:33;;;;;;;15.35;12.00;;;18.50;99.90;;;;;;5023347;28;20209;-79
2021/08/30 07:34:00;;;;;;;15.38;10.88;;;18.70;99.90;;;;;;5018977;28;20231;-78
2021/08/30 07:36:27;;;;;;;13.95;11.00;;;18.90;99.90;;;;;;5009713;28;20201;-79
2021/08/30 07:38:54;;;;;;;20.05;11.70;;;18.90;99.90;;;;;;5008081;28;20190;-79
2021/08/30 07:41:21;;;;;;;16.02;11.63;;;18.80;99.90;;;;;;5011749;28;20204;-79
2021/08/30 07:43:48;;;;;;;15.30;12.25;;;18.50;99.90;;;;;;5016336;28;20366;-80
2021/08/30 07:46:20;;;;;;;15.93;12.02;;;18.20;99.90;;;;;;5008613;28;20202;-80
2021/08/30 07:48:49;;;;;;;16.73;13.20;;;18.10;99.90;;;;;;5011050;28;20210;-81
2021/08/30 07:51:16;;;;;;;18.02;12.38;;;18.10;99.90;;;;;;5015702;28;20225;-78
2021/08/30 07:53:43;;;;;;;16.33;11.98;;;18.50;99.90;;;;;;5012861;28;20237;-78
2021/08/30 07:56:11;;;;;;;16.67;11.88;;;18.80;99.90;;;;;;5012432;28;20210;-78
2021/08/30 07:58:38;;;;;;;17.13;12.65;;;19.10;99.90;;;;;;5019974;28;20225;-78
2021/08/30 08:01:05;;;;;;;16.23;12.50;;;18.90;99.90;;;;;;5018196;28;20586;-79
2021/08/30 08:03:33;;;;;;;15.93;11.70;;;18.50;99.90;;;;;;5017184;28;20197;-78
2021/08/30 08:06:00;;;;;;;17.17;12.25;;;18.30;99.90;;;;;;5014138;28;20264;-79
2021/08/30 08:08:27;;;;;;;17.02;12.02;;;18.20;99.90;;;;;;5015877;28;20292;-80
2021/08/30 08:10:53;;;;;;;23.20;13.00;;;18.10;99.90;;;;;;5016046;28;20276;-81
2021/08/30 08:13:22;;;;;;;17.55;12.10;;;18.10;99.90;;;;;;5011761;28;20598;-77
2021/08/30 08:15:49;;;;;;;25.20;13.38;;;18.10;99.90;;;;;;5014408;28;20198;-80
2021/08/30 08:18:17;;;;;;;15.35;12.38;;;17.80;99.90;;;;;;5016680;28;20201;-79
2021/08/30 08:20:45;;;;;;;15.35;12.50;;;17.90;99.90;;;;;;5020066;28;20755;-79
2021/08/30 08:23:12;;;;;;;17.73;13.25;;;17.90;99.90;;;;;;5022046;28;20229;-81
2021/08/30 08:25:39;;;;;;;18.05;13.88;;;17.90;99.90;;;;;;5020964;28;20368;-80
2021/08/30 08:28:06;;;;;;;16.80;12.98;;;18.20;99.90;;;;;;5017301;28;20210;-79
2021/08/30 08:30:34;;;;;;;17.58;12.82;;;18.70;99.90;;;;;;5016372;28;20218;-78
2021/08/30 08:33:01;;;;;;;14.48;12.75;;;19.30;99.90;;;;;;5014269;28;20229;-81
2021/08/30 08:35:29;;;;;;;16.33;12.27;;;19.20;99.90;;;;;;5015849;28;20198;-79
2021/08/30 08:37:57;;;;;;;18.73;12.63;;;19.00;99.90;;;;;;5017518;28;20573;-79
2021/08/30 08:40:24;;;;;;;18.08;12.77;;;19.10;99.90;;;;;;5017465;28;20293;-76
2021/08/30 08:42:51;;;;;;;14.30;11.60;;;19.90;99.90;;;;;;5014319;28;20205;-76
2021/08/30 08:45:19;;;;;;;16.40;12.35;;;19.60;99.90;;;;;;5011983;28;20198;-75
2021/08/30 08:47:47;;;;;;;16.67;12.40;;;19.00;99.90;;;;;;5018010;28;20189;-77
2021/08/30 08:50:16;;;;;;;16.27;12.73;;;19.20;99.90;;;;;;5017892;28;20198;-75
2021/08/30 08:52:44;;;;;;;16.02;12.50;;;19.30;99.90;;;;;;5017089;28;20227;-76
2021/08/30 08:55:14;;;;;;;14.93;11.45;;;19.60;99.90;;;;;;5015703;28;20324;-77
2021/08/30 08:57:41;;;;;;;15.73;12.48;;;20.00;99.90;;;;;;5015575;28;20413;-76
2021/08/30 09:00:10;;;;;;;15.50;13.23;;;19.80;99.90;;;;;;5014872;28;21420;-81
2021/08/30 09:02:37;;;;;;;16.73;12.57;;;20.20;99.90;;;;;;5014679;28;20238;-77
2021/08/30 09:05:07;;;;;;;15.18;11.80;;;20.10;99.90;;;;;;5020442;28;20204;-80
2021/08/30 09:07:37;;;;;;;18.70;11.80;;;20.20;99.90;;;;;;5013197;28;20256;-81
2021/08/30 09:10:06;;;;;;;16.67;11.93;;;20.80;99.90;;;;;;5014554;28;20553;-78
2021/08/30 09:12:34;;;;;;;14.50;11.85;;;20.90;99.90;;;;;;5018058;28;20261;-79
2021/08/30 09:15:11;;;;;;;15.77;13.05;;;20.10;99.90;;;;;;5018171;28;20284;-77
2021/08/30 09:17:47;;;;;;;13.68;12.25;;;19.60;99.90;;;;;;5022407;28;20193;-79
2021/08/30 09:20:15;;;;;;;16.55;12.18;;;19.50;99.90;;;;;;5023058;28;20195;-79
2021/08/30 09:22:42;;;;;;;15.57;12.15;;;19.70;99.90;;;;;;5031224;28;20229;-77
2021/08/30 09:25:11;;;;;;;16.85;12.60;;;19.60;99.90;;;;;;5017584;28;20547;-77
2021/08/30 09:27:41;;;;;;;15.25;13.30;;;19.60;99.90;;;;;;5011905;28;20281;-79
2021/08/30 09:30:12;;;;;;;17.63;11.70;;;19.40;99.90;;;;;;5019743;28;20568;-80
2021/08/30 09:32:41;;;;;;;16.52;12.80;;;19.60;99.90;;;;;;5021002;28;20212;-78
2021/08/30 09:35:10;;;;;;;17.13;11.95;;;19.60;99.90;;;;;;5009583;28;20305;-77
2021/08/30 09:37:40;;;;;;;15.77;13.00;;;19.80;99.90;;;;;;5015224;28;20296;-76
2021/08/30 09:40:09;;;;;;;14.63;12.38;;;20.00;99.90;;;;;;5011602;28;20226;-76
2021/08/30 09:42:40;;;;;;;15.55;11.68;;;20.00;99.90;;;;;;5012285;28;20292;-76
2021/08/30 09:45:12;;;;;;;14.43;11.80;;;20.10;99.90;;;;;;5014222;28;20252;-78
2021/08/30 09:47:49;;;;;;;18.30;12.45;;;19.80;99.90;;;;;;5014087;28;20280;-74
2021/08/30 09:50:17;;;;;;;16.85;11.32;;;19.60;99.90;;;;;;5020094;28;20208;-78
2021/08/30 09:52:44;;;;;;;15.32;11.57;;;19.50;99.90;;;;;;5014985;28;20234;-78
2021/08/30 09:55:11;;;;;;;15.18;11.30;;;19.60;99.90;;;;;;5010914;28;20190;-77
2021/08/30 09:57:39;;;;;;;14.93;11.90;;;19.70;99.90;;;;;;5019226;28;20677;-79
2021/08/30 10:00:09;;;;;;;12.73;11.30;;;19.60;99.90;;;;;;5010511;28;20198;-77
2021/08/30 10:02:36;;;;;;;13.20;11.13;;;19.90;99.90;;;;;;5012263;28;20203;-78
2021/08/30 10:05:04;;;;;;;16.40;10.98;;;20.00;99.90;;;;;;5010714;28;20649;-77
2021/08/30 10:07:34;;;;;;;14.82;11.25;;;19.50;99.90;;;;;;5009922;28;20297;-78
2021/08/30 10:10:02;;;;;;;12.40;10.93;;;19.60;99.90;;;;;;5021047;28;20580;-78
2021/08/30 10:12:29;;;;;;;14.07;11.10;;;19.70;99.90;;;;;;5025807;28;20240;-77
2021/08/30 10:14:57;;;;;;;16.33;12.05;;;19.60;99.90;;;;;;5019052;28;20364;-77
2021/08/30 10:17:25;;;;;;;14.65;11.45;;;19.60;99.90;;;;;;5017503;28;20214;-80
2021/08/30 10:19:58;;;;;;;15.93;10.93;;;19.20;99.90;;;;;;5018116;28;20289;-78
2021/08/30 10:22:25;;;;;;;12.95;10.63;;;19.40;99.90;;;;;;5019569;28;20285;-77
2021/08/30 10:24:53;;;;;;;13.68;12.20;;;19.40;99.90;;;;;;5009950;28;20748;-78
2021/08/30 10:27:31;;;;;;;15.38;12.55;;;19.20;99.90;;;;;;5010036;28;20209;-78
2021/08/30 10:30:10;;;;;;;14.50;11.48;;;19.10;99.90;;;;;;5016288;28;20308;-77
2021/08/30 10:32:44;;;;;;;12.75;10.95;;;19.10;99.90;;;;;;5015160;28;20594;-79
2021/08/30 10:35:14;;;;;;;14.45;11.20;;;19.50;99.90;;;;;;5010890;28;20217;-78
2021/08/30 10:37:48;;;;;;;14.32;11.18;;;19.70;99.90;;;;;;5010091;28;20225;-78
2021/08/30 10:40:16;;;;;;;16.15;10.90;;;19.40;99.90;;;;;;5014726;28;20300;-78
2021/08/30 10:42:43;;;;;;;13.43;11.07;;;19.40;99.90;;;;;;5016555;28;20197;-78
2021/08/30 10:45:11;;;;;;;13.48;10.52;;;19.40;99.90;;;;;;5013887;28;20664;-78
2021/08/30 10:47:41;;;;;;;15.65;12.10;;;19.50;99.90;;;;;;5010866;28;20740;-78
2021/08/30 10:50:21;;;;;;;16.48;11.75;;;19.40;99.90;;;;;;5018740;28;20218;-78
2021/08/30 10:52:48;;;;;;;14.43;11.30;;;19.40;99.90;;;;;;5016038;28;20201;-78
2021/08/30 10:55:17;;;;;;;16.45;10.93;;;19.80;99.90;;;;;;5012894;28;20355;-78
2021/08/30 10:57:53;;;;;;;13.02;10.73;;;20.00;99.90;;;;;;5015975;28;20343;-78
2021/08/30 11:00:31;;;;;;;11.45;10.15;;;20.40;99.90;;;;;;5022864;28;20202;-79
2021/08/30 11:03:00;;;;;;;15.35;11.25;;;20.30;99.90;;;;;;5023626;28;20223;-78
2021/08/30 11:05:28;;;;;;;15.60;12.02;;;19.80;99.90;;;;;;5016284;28;20289;-78
2021/08/30 11:07:56;;;;;;;13.45;10.85;;;19.80;99.90;;;;;;5017121;28;20860;-78
2021/08/30 11:10:25;;;;;;;15.70;12.05;;;20.40;99.90;;;;;;5012326;28;20194;-79
2021/08/30 11:12:51;;;;;;;16.88;13.60;;;20.80;99.90;;;;;;5017291;28;20197;-78
2021/08/30 11:15:19;;;;;;;15.15;12.98;;;21.40;99.90;;;;;;5013131;28;20233;-79
2021/08/30 11:17:46;;;;;;;14.73;13.13;;;21.50;99.90;;;;;;5018035;28;20197;-79
2021/08/30 11:20:17;;;;;;;14.65;13.10;;;20.80;99.90;;;;;;5016503;28;20316;-80
2021/08/30 11:22:51;;;;;;;19.17;13.27;;;20.80;99.90;;;;;;5015906;28;20196;-77
2021/08/30 11:25:18;;;;;;;17.17;12.98;;;20.80;99.90;;;;;;5015763;28;20201;-79
2021/08/30 11:27:45;;;;;;;14.25;12.70;;;21.00;99.90;;;;;;5022012;28;20735;-79
2021/08/30 11:30:14;;;;;;;16.63;12.50;;;21.20;99.90;;;;;;5021338;28;20728;-78
2021/08/30 11:32:41;;;;;;;15.95;12.25;;;21.50;99.90;;;;;;5023564;28;20223;-75
2021/08/30 11:35:13;;;;;;;15.65;11.60;;;21.20;99.90;;;;;;5013188;28;20725;-78
2021/08/30 11:37:41;;;;;;;13.95;11.75;;;21.20;99.90;;;;;;5011945;28;20218;-78
2021/08/30 11:40:11;;;;;;;13.57;12.15;;;21.20;99.90;;;;;;5013965;28;20742;-78
2021/08/30 11:42:38;;;;;;;15.25;13.02;;;20.60;99.90;;;;;;5015946;28;20197;-79
2021/08/30 11:45:08;;;;;;;12.65;10.25;;;20.80;99.90;;;;;;5019145;28;20213;-78
2021/08/30 11:47:35;;;;;;;14.35;11.43;;;21.00;99.90;;;;;;5018594;28;20214;-79
2021/08/30 11:50:05;;;;;;;16.15;12.50;;;21.40;99.90;;;;;;5020030;28;20204;-82
2021/08/30 11:52:34;;;;;;;16.65;12.30;;;21.40;99.90;;;;;;5019927;28;20293;-79
2021/08/30 11:55:04;;;;;;;16.95;12.82;;;21.60;99.90;;;;;;5013009;28;20317;-81
2021/08/30 11:57:40;;;;;;;18.40;15.55;;;21.30;99.90;;;;;;5011779;28;20194;-81
2021/08/30 12:00:09;;;;;;;16.00;14.38;;;21.00;99.90;;;;;;5017395;28;20221;-79
2021/08/30 12:02:37;;;;;;;17.35;14.02;;;20.90;99.90;;;;;;5020972;28;20766;-79
2021/08/30 12:05:05;;;;;;;17.55;14.38;;;20.90;99.90;;;;;;5014628;28;20205;-78
2021/08/30 12:07:33;;;;;;;20.05;14.95;;;21.00;99.90;;;;;;5012249;28;20356;-78
2021/08/30 12:10:03;;;;;;;19.42;13.82;;;20.40;99.90;;;;;;5019814;28;20285;-82
2021/08/30 12:12:34;;;;;;;18.27;14.63;;;20.60;99.90;;;;;;5010986;28;20218;-78
2021/08/30 12:15:05;;;;;;;13.98;12.30;;;20.80;99.90;;;;;;5018246;28;20283;-78
2021/08/30 12:17:34;;;;;;;17.90;13.15;;;21.00;99.90;;;;;;5016014;28;20575;-81
2021/08/30 12:20:04;;;;;;;14.85;12.20;;;21.10;99.90;;;;;;5012291;28;20215;-79
2021/08/30 12:22:33;;;;;;;14.07;11.93;;;21.20;99.90;;;;;;5013446;28;20602;-80
2021/08/30 12:25:04;;;;;;;13.98;11.80;;;21.40;99.90;;;;;;5015590;28;20240;-77
2021/08/30 12:27:35;;;;;;;16.67;12.73;;;21.30;99.90;;;;;;5012371;28;20286;-78
2021/08/30 12:30:20;;;;;;;15.00;12.73;;;21.60;99.90;;;;;;5015650;28;20225;-77
2021/08/30 12:32:52;;;;;;;15.50;12.32;;;21.30;99.90;;;;;;5015775;28;20620;-80
2021/08/30 12:35:23;;;;;;;14.95;12.40;;;21.10;99.90;;;;;;5008326;28;20230;-78
2021/08/30 12:37:51;;;;;;;17.20;12.43;;;21.30;99.90;;;;;;5016907;28;20587;-79
2021/08/30 12:40:21;;;;;;;13.07;11.70;;;21.20;99.90;;;;;;5013342;28;20311;-81
2021/08/30 12:42:48;;;;;;;16.92;11.93;;;21.00;99.90;;;;;;5012663;28;20230;-79
2021/08/30 12:45:15;;;;;;;12.38;10.98;;;20.80;99.90;;;;;;5018343;28;20194;-79